createdAt,value
2023-01-07T00:01:27.666Z,101568.53
2023-01-07T00:03:55.640Z,101568.56
2023-01-07T00:06:24.793Z,101558.13
2023-01-07T00:08:53.068Z,101554.69
2023-01-07T00:11:22.146Z,101546.03
2023-01-07T00:13:50.322Z,101550.38
2023-01-07T00:16:22.406Z,101545.16
2023-01-07T00:18:51.219Z,101552.97
2023-01-07T00:21:19.292Z,101551.34
2023-01-07T00:23:47.346Z,101552.19
2023-01-07T00:26:17.631Z,101547.84
2023-01-07T00:28:45.794Z,101548.72
2023-01-07T00:31:17.474Z,101545.28
2023-01-07T00:33:59.506Z,101548.72
2023-01-07T00:36:31.763Z,101541.78
2023-01-07T00:39:04.489Z,101530.56
2023-01-07T00:41:31.041Z,101531.50
2023-01-07T00:43:57.534Z,101532.41
2023-01-07T00:46:24.247Z,101521.22
2023-01-07T00:48:50.794Z,101510.03
2023-01-07T00:51:18.390Z,101515.22
2023-01-07T00:53:45.348Z,101505.72
2023-01-07T00:56:14.751Z,101514.47
2023-01-07T00:58:41.845Z,101504.09
2023-01-07T01:01:10.249Z,101510.16
2023-01-07T01:03:36.791Z,101513.72
2023-01-07T01:06:05.166Z,101508.56
2023-01-07T01:08:31.699Z,101503.44
2023-01-07T01:11:03.968Z,101501.72
2023-01-07T01:13:30.355Z,101501.88
2023-01-07T01:15:56.871Z,101496.66
2023-01-07T01:18:23.316Z,101493.31
2023-01-07T01:20:49.753Z,101494.25
2023-01-07T01:23:16.138Z,101494.34
2023-01-07T01:25:42.496Z,101495.31
2023-01-07T01:28:08.907Z,101498.88
2023-01-07T01:30:35.319Z,101491.25
2023-01-07T01:33:01.680Z,101491.34
2023-01-07T01:35:28.225Z,101488.00
2023-01-07T01:37:54.567Z,101485.50
2023-01-07T01:40:20.999Z,101488.13
2023-01-07T01:42:47.492Z,101488.28
2023-01-07T01:45:13.988Z,101485.66
2023-01-07T01:47:56.495Z,101488.97
2023-01-07T01:50:43.250Z,101494.13
2023-01-07T01:53:29.745Z,101492.38
2023-01-07T01:56:00.975Z,101494.94
2023-01-07T01:58:32.645Z,101492.31
2023-01-07T02:00:59.143Z,101486.22
2023-01-07T02:03:28.438Z,101486.28
2023-01-07T02:05:55.081Z,101484.53
2023-01-07T02:08:24.022Z,101484.47
2023-01-07T02:11:14.181Z,101482.66
2023-01-07T02:14:30.040Z,101475.72
2023-01-07T02:17:33.749Z,101479.31
2023-01-07T02:20:24.494Z,101470.88
2023-01-07T02:23:07.525Z,101472.78
2023-01-07T02:25:52.751Z,101479.72
2023-01-07T02:28:34.261Z,101477.00
2023-01-07T02:31:22.212Z,101476.91
2023-01-07T02:33:54.549Z,101471.72
2023-01-07T02:36:39.745Z,101475.94
2023-01-07T02:39:12.089Z,101478.53
2023-01-07T02:42:16.447Z,101474.13
2023-01-07T02:44:53.589Z,101474.19
2023-01-07T02:47:22.765Z,101461.31
2023-01-07T02:49:49.945Z,101465.75
2023-01-07T02:52:24.834Z,101471.88
2023-01-07T02:54:59.483Z,101468.50
2023-01-07T02:57:44.720Z,101459.91
2023-01-07T03:00:34.732Z,101453.03
2023-01-07T03:03:13.055Z,101448.72
2023-01-07T03:06:05.749Z,101446.91
2023-01-07T03:08:52.560Z,101433.13
2023-01-07T03:11:20.180Z,101431.50
2023-01-07T03:14:00.104Z,101437.53
2023-01-07T03:16:39.818Z,101431.59
2023-01-07T03:19:18.139Z,101424.72
2023-01-07T03:21:47.573Z,101433.41
2023-01-07T03:24:16.321Z,101427.44
2023-01-07T03:26:46.231Z,101416.28
2023-01-07T03:29:15.394Z,101411.06
2023-01-07T03:32:05.048Z,101416.28
2023-01-07T03:34:34.222Z,101421.63
2023-01-07T03:37:04.689Z,101420.84
2023-01-07T03:39:34.610Z,101413.13
2023-01-07T03:42:22.602Z,101412.34
2023-01-07T03:44:48.979Z,101414.06
2023-01-07T03:47:15.413Z,101409.84
2023-01-07T03:49:41.797Z,101403.00
2023-01-07T03:52:08.244Z,101395.28
2023-01-07T03:54:34.664Z,101395.34
2023-01-07T03:57:01.083Z,101389.34
2023-01-07T03:59:27.468Z,101384.16
2023-01-07T04:01:54.025Z,101378.97
2023-01-07T04:04:20.676Z,101389.41
2023-01-07T04:06:47.961Z,101384.22
2023-01-07T04:09:21.970Z,101377.38
2023-01-07T04:11:48.550Z,101370.47
2023-01-07T04:14:15.009Z,101372.25
2023-01-07T04:16:41.536Z,101375.72
2023-01-07T04:19:08.174Z,101369.69
2023-01-07T04:21:34.716Z,101375.72
2023-01-07T04:24:01.163Z,101371.50
2023-01-07T04:26:27.614Z,101362.88
2023-01-07T04:28:54.032Z,101368.97
2023-01-07T04:31:20.656Z,101365.59
2023-01-07T04:33:47.098Z,101361.28
2023-01-07T04:36:16.451Z,101356.09
2023-01-07T04:38:42.899Z,101349.22
2023-01-07T04:41:09.503Z,101356.22
2023-01-07T04:43:36.298Z,101347.56
2023-01-07T04:46:04.151Z,101347.50
2023-01-07T04:48:31.069Z,101346.66
2023-01-07T04:50:57.553Z,101344.13
2023-01-07T04:53:24.252Z,101343.22
2023-01-07T04:55:50.743Z,101345.03
2023-01-07T04:58:17.257Z,101346.75
2023-01-07T05:00:44.871Z,101342.44
2023-01-07T05:03:11.251Z,101340.69
2023-01-07T05:05:37.781Z,101343.31
2023-01-07T05:08:04.737Z,101334.75
2023-01-07T05:10:31.228Z,101342.53
2023-01-07T05:12:57.638Z,101334.75
2023-01-07T05:15:24.051Z,101328.72
2023-01-07T05:17:50.637Z,101323.47
2023-01-07T05:20:17.360Z,101326.94
2023-01-07T05:22:43.912Z,101320.00
2023-01-07T05:25:10.455Z,101326.94
2023-01-07T05:27:36.836Z,101322.69
2023-01-07T05:30:04.086Z,101311.41
2023-01-07T05:32:30.472Z,101312.28
2023-01-07T05:34:57.615Z,101318.31
2023-01-07T05:37:24.182Z,101315.69
2023-01-07T05:39:50.607Z,101313.97
2023-01-07T05:42:17.077Z,101300.16
2023-01-07T05:44:43.531Z,101302.69
2023-01-07T05:47:10.005Z,101305.22
2023-01-07T05:49:36.412Z,101311.19
2023-01-07T05:52:02.917Z,101304.16
2023-01-07T05:54:29.324Z,101307.66
2023-01-07T05:56:55.789Z,101301.53
2023-01-07T05:59:22.218Z,101310.25
2023-01-07T06:01:48.712Z,101298.16
2023-01-07T06:04:15.414Z,101297.28
2023-01-07T06:06:41.871Z,101287.78
2023-01-07T06:09:08.307Z,101290.41
2023-01-07T06:11:34.816Z,101285.22
2023-01-07T06:14:01.173Z,101282.63
2023-01-07T06:16:27.631Z,101280.91
2023-01-07T06:18:54.238Z,101280.91
2023-01-07T06:21:21.533Z,101280.16
2023-01-07T06:23:47.890Z,101273.25
2023-01-07T06:26:14.299Z,101260.28
2023-01-07T06:28:40.707Z,101260.22
2023-01-07T06:31:10.085Z,101251.53
2023-01-07T06:33:37.895Z,101255.72
2023-01-07T06:36:05.111Z,101252.22
2023-01-07T06:38:31.560Z,101250.41
2023-01-07T06:41:02.143Z,101250.25
2023-01-07T06:43:29.220Z,101250.22
2023-01-07T06:45:56.210Z,101246.78
2023-01-07T06:48:22.766Z,101240.66
2023-01-07T06:50:49.252Z,101236.34
2023-01-07T06:53:15.694Z,101241.44
2023-01-07T06:55:48.006Z,101239.63
2023-01-07T06:58:14.412Z,101225.06
2023-01-07T07:00:40.790Z,101226.06
2023-01-07T07:03:07.223Z,101224.47
2023-01-07T07:05:34.680Z,101222.00
2023-01-07T07:08:01.097Z,101221.22
2023-01-07T07:10:27.563Z,101218.72
2023-01-07T07:12:53.919Z,101219.69
2023-01-07T07:15:20.501Z,101219.84
2023-01-07T07:17:47.122Z,101215.63
2023-01-07T07:20:13.582Z,101212.16
2023-01-07T07:22:45.345Z,101207.91
2023-01-07T07:25:12.162Z,101201.16
2023-01-07T07:27:38.688Z,101200.38
2023-01-07T07:30:08.373Z,101205.63
2023-01-07T07:32:35.015Z,101204.78
2023-01-07T07:35:01.514Z,101197.91
2023-01-07T07:37:27.975Z,101197.06
2023-01-07T07:39:54.337Z,101200.59
2023-01-07T07:42:20.804Z,101198.91
2023-01-07T07:44:47.223Z,101191.19
2023-01-07T07:47:13.739Z,101193.72
2023-01-07T07:49:40.178Z,101190.16
2023-01-07T07:52:06.863Z,101188.50
2023-01-07T07:54:33.461Z,101193.69
2023-01-07T07:56:59.824Z,101194.53
2023-01-07T07:59:26.384Z,101202.13
2023-01-07T08:01:52.975Z,101193.31
2023-01-07T08:04:19.485Z,101183.66
2023-01-07T08:06:45.842Z,101185.28
2023-01-07T08:09:12.370Z,101177.50
2023-01-07T08:11:38.800Z,101181.69
2023-01-07T08:14:05.476Z,101184.97
2023-01-07T08:16:31.958Z,101177.81
2023-01-07T08:18:58.539Z,101187.19
2023-01-07T08:21:24.918Z,101176.72
2023-01-07T08:23:51.282Z,101170.47
2023-01-07T08:26:17.736Z,101167.84
2023-01-07T08:28:46.495Z,101168.56
2023-01-07T08:31:13.174Z,101166.66
2023-01-07T08:33:39.708Z,101172.53
2023-01-07T08:36:18.051Z,101170.63
2023-01-07T08:38:53.641Z,101167.00
2023-01-07T08:41:21.779Z,101161.75
2023-01-07T08:43:48.272Z,101168.63
2023-01-07T08:46:14.734Z,101159.94
2023-01-07T08:48:41.306Z,101163.38
2023-01-07T08:51:07.990Z,101164.31
2023-01-07T08:53:34.923Z,101157.41
2023-01-07T08:56:01.392Z,101160.78
2023-01-07T08:58:27.898Z,101150.34
2023-01-07T09:00:54.468Z,101140.72
2023-01-07T09:03:21.526Z,101145.00
2023-01-07T09:05:48.062Z,101144.09
2023-01-07T09:08:14.464Z,101154.34
2023-01-07T09:10:40.894Z,101148.22
2023-01-07T09:13:07.878Z,101139.34
2023-01-07T09:15:34.321Z,101144.44
2023-01-07T09:18:04.929Z,101146.97
2023-01-07T09:20:31.478Z,101140.84
2023-01-07T09:22:58.483Z,101136.47
2023-01-07T09:25:24.989Z,101136.44
2023-01-07T09:27:51.461Z,101131.13
2023-01-07T09:30:17.980Z,101126.66
2023-01-07T09:32:44.927Z,101125.72
2023-01-07T09:35:12.236Z,101127.38
2023-01-07T09:37:39.095Z,101126.50
2023-01-07T09:40:08.361Z,101128.94
2023-01-07T09:42:51.622Z,101113.28
2023-01-07T09:45:29.191Z,101115.84
2023-01-07T09:47:58.723Z,101112.31
2023-01-07T09:50:48.171Z,101107.03
2023-01-07T09:53:22.079Z,101100.91
2023-01-07T09:56:11.317Z,101096.66
2023-01-07T09:58:41.530Z,101100.09
2023-01-07T10:01:17.542Z,101085.31
2023-01-07T10:03:43.936Z,101092.22
2023-01-07T10:06:26.684Z,101081.72
2023-01-07T10:09:13.684Z,101085.81
2023-01-07T10:12:11.146Z,101071.94
2023-01-07T10:14:51.369Z,101069.22
2023-01-07T10:17:32.728Z,101062.38
2023-01-07T10:20:10.297Z,101057.38
2023-01-07T10:22:44.912Z,101052.28
2023-01-07T10:25:20.313Z,101046.09
2023-01-07T10:27:49.676Z,101046.03
2023-01-07T10:30:21.589Z,101043.16
2023-01-07T10:32:54.187Z,101041.19
2023-01-07T10:35:27.278Z,101039.38
2023-01-07T10:37:58.925Z,101031.47
2023-01-07T10:40:42.879Z,101016.69
2023-01-07T10:43:46.462Z,101020.13
2023-01-07T10:46:32.480Z,101000.97
2023-01-07T10:49:18.254Z,100996.72
2023-01-07T10:51:53.409Z,100989.88
2023-01-07T10:54:50.802Z,100983.06
2023-01-07T10:57:23.095Z,100978.78
2023-01-07T10:59:55.962Z,100973.50
2023-01-07T11:02:27.374Z,100967.41
2023-01-07T11:04:55.712Z,100970.84
2023-01-07T11:07:40.117Z,100963.88
2023-01-07T11:10:12.578Z,100962.91
2023-01-07T11:12:53.677Z,100955.88
2023-01-07T11:15:32.235Z,100953.22
2023-01-07T11:18:27.887Z,100947.94
2023-01-07T11:20:57.109Z,100941.81
2023-01-07T11:23:35.689Z,100933.94
2023-01-07T11:26:30.218Z,100929.44
2023-01-07T11:29:16.981Z,100918.03
2023-01-07T11:31:49.619Z,100914.50
2023-01-07T11:34:26.955Z,100910.06
2023-01-07T11:36:54.205Z,100898.84
2023-01-07T11:39:29.634Z,100886.53
2023-01-07T11:42:38.998Z,100876.72
2023-01-07T11:45:21.666Z,100868.59
2023-01-07T11:48:10.237Z,100870.97
2023-01-07T11:50:54.761Z,100853.38
2023-01-07T11:53:31.565Z,100852.38
2023-01-07T11:56:01.261Z,100846.16
2023-01-07T11:58:31.436Z,100827.78
2023-01-07T12:01:12.765Z,100824.97
2023-01-07T12:03:43.988Z,100822.25
2023-01-07T12:06:18.794Z,100830.00
2023-01-07T12:09:00.816Z,100823.03
2023-01-07T12:11:43.187Z,100820.34
2023-01-07T12:14:28.098Z,100816.75
2023-01-07T12:16:57.713Z,100802.81
2023-01-07T12:19:48.821Z,100801.88
2023-01-07T12:22:52.257Z,100794.91
2023-01-07T12:25:37.700Z,100781.88
2023-01-07T12:28:13.179Z,100781.97
2023-01-07T12:31:07.208Z,100773.34
2023-01-07T12:33:52.526Z,100769.88
2023-01-07T12:36:55.839Z,100775.19
2023-01-07T12:39:38.977Z,100773.50
2023-01-07T12:42:16.365Z,100776.09
2023-01-07T12:44:56.710Z,100772.56
2023-01-07T12:47:33.085Z,100757.03
2023-01-07T12:50:03.857Z,100751.75
2023-01-07T12:52:48.718Z,100747.31
2023-01-07T12:55:36.223Z,100744.59
2023-01-07T12:58:06.440Z,100736.03
2023-01-07T13:00:46.638Z,100736.72
2023-01-07T13:03:48.850Z,100717.41
2023-01-07T13:06:53.645Z,100720.69
2023-01-07T13:09:29.484Z,100710.34
2023-01-07T13:12:40.847Z,100708.50
2023-01-07T13:15:13.534Z,100695.56
2023-01-07T13:17:40.735Z,100692.97
2023-01-07T13:20:13.172Z,100689.44
2023-01-07T13:22:48.654Z,100669.69
2023-01-07T13:25:36.415Z,100666.16
2023-01-07T13:28:22.430Z,100674.81
2023-01-07T13:31:07.860Z,100656.56
2023-01-07T13:33:47.519Z,100661.13
2023-01-07T13:36:45.084Z,100656.00
2023-01-07T13:39:44.144Z,100657.09
2023-01-07T13:42:27.815Z,100635.50
2023-01-07T13:45:10.224Z,100637.28
2023-01-07T13:47:43.192Z,100634.75
2023-01-07T13:50:38.998Z,100628.63
2023-01-07T13:53:26.208Z,100629.41
2023-01-07T13:55:55.024Z,100629.47
2023-01-07T13:58:30.434Z,100620.66
2023-01-07T14:01:09.000Z,100603.38
2023-01-07T14:03:55.791Z,100608.66
2023-01-07T14:06:22.303Z,100604.34
2023-01-07T14:08:52.560Z,100601.66
2023-01-07T14:11:20.967Z,100594.81
2023-01-07T14:13:55.647Z,100601.94
2023-01-07T14:16:31.863Z,100599.31
2023-01-07T14:19:33.053Z,100596.81
2023-01-07T14:22:27.175Z,100587.47
2023-01-07T14:25:27.281Z,100590.28
2023-01-07T14:28:24.079Z,100594.63
2023-01-07T14:30:52.173Z,100587.16
2023-01-07T14:33:35.161Z,100583.69
2023-01-07T14:36:05.696Z,100589.09
2023-01-07T14:38:32.171Z,100578.94
2023-01-07T14:41:09.474Z,100567.59
2023-01-07T14:43:48.532Z,100571.97
2023-01-07T14:46:24.267Z,100571.06
2023-01-07T14:49:03.183Z,100564.09
2023-01-07T14:51:56.227Z,100555.34
2023-01-07T14:54:44.525Z,100558.03
2023-01-07T14:57:37.583Z,100558.13
2023-01-07T15:00:35.530Z,100557.19
2023-01-07T15:03:20.286Z,100556.44
2023-01-07T15:06:14.098Z,100564.22
2023-01-07T15:09:01.760Z,100562.66
2023-01-07T15:11:48.210Z,100570.53
2023-01-07T15:15:02.257Z,100560.97
2023-01-07T15:17:28.822Z,100555.84
2023-01-07T15:19:56.413Z,100547.22
2023-01-07T15:22:55.565Z,100549.81
2023-01-07T15:25:38.783Z,100537.72
2023-01-07T15:28:11.638Z,100542.09
2023-01-07T15:31:02.256Z,100533.34
2023-01-07T15:34:06.219Z,100528.25
2023-01-07T15:36:33.121Z,100520.59
2023-01-07T15:39:03.250Z,100528.50
2023-01-07T15:41:34.335Z,100522.44
2023-01-07T15:44:06.681Z,100524.13
2023-01-07T15:46:34.014Z,100526.81
2023-01-07T15:49:09.504Z,100530.34
2023-01-07T15:51:39.929Z,100527.00
2023-01-07T15:54:21.472Z,100519.28
2023-01-07T15:56:50.284Z,100506.34
2023-01-07T15:59:22.328Z,100508.94
2023-01-07T16:01:51.158Z,100495.19
2023-01-07T16:04:26.345Z,100494.28
2023-01-07T16:07:00.567Z,100497.84
2023-01-07T16:09:27.578Z,100497.97
2023-01-07T16:11:54.928Z,100503.16
2023-01-07T16:14:24.288Z,100497.13
2023-01-07T16:17:16.159Z,100491.00
2023-01-07T16:19:42.862Z,100492.91
2023-01-07T16:22:17.528Z,100494.69
2023-01-07T16:24:53.728Z,100486.13
2023-01-07T16:27:28.775Z,100494.84
2023-01-07T16:29:58.078Z,100481.91
2023-01-07T16:32:25.693Z,100475.00
2023-01-07T16:35:09.141Z,100466.38
2023-01-07T16:37:39.298Z,100458.66
2023-01-07T16:40:18.009Z,100459.66
2023-01-07T16:42:48.154Z,100460.00
2023-01-07T16:45:36.611Z,100469.75
2023-01-07T16:48:21.530Z,100457.84
2023-01-07T16:50:48.970Z,100462.53
2023-01-07T16:53:26.412Z,100471.25
2023-01-07T16:56:02.121Z,100469.56
2023-01-07T16:58:37.860Z,100473.09
2023-01-07T17:01:05.266Z,100474.94
2023-01-07T17:03:44.303Z,100487.03
2023-01-07T17:06:11.678Z,100484.63
2023-01-07T17:08:38.729Z,100475.25
2023-01-07T17:11:17.565Z,100484.06
2023-01-07T17:13:44.194Z,100477.28
2023-01-07T17:16:39.767Z,100499.06
2023-01-07T17:19:24.225Z,100482.19
2023-01-07T17:21:50.841Z,100473.03
2023-01-07T17:24:27.246Z,100468.91
2023-01-07T17:26:55.548Z,100470.94
2023-01-07T17:29:27.009Z,100454.50
2023-01-07T17:31:53.442Z,100460.78
2023-01-07T17:34:23.558Z,100473.09
2023-01-07T17:36:51.555Z,100448.94
2023-01-07T17:39:17.963Z,100439.56
2023-01-07T17:42:03.019Z,100443.06
2023-01-07T17:44:32.271Z,100444.75
2023-01-07T17:46:58.804Z,100449.13
2023-01-07T17:49:25.584Z,100438.72
2023-01-07T17:51:54.524Z,100430.19
2023-01-07T17:54:24.085Z,100431.91
2023-01-07T17:56:50.654Z,100429.31
2023-01-07T17:59:20.755Z,100424.13
2023-01-07T18:01:47.828Z,100408.53
2023-01-07T18:04:14.484Z,100406.88
2023-01-07T18:06:42.827Z,100405.94
2023-01-07T18:09:11.220Z,100402.44
2023-01-07T18:11:59.135Z,100400.69
2023-01-07T18:14:25.620Z,100398.09
2023-01-07T18:16:52.753Z,100402.44
2023-01-07T18:19:19.801Z,100400.84
2023-01-07T18:21:46.722Z,100394.16
2023-01-07T18:24:18.775Z,100403.78
2023-01-07T18:26:46.686Z,100411.63
2023-01-07T18:29:13.975Z,100391.88
2023-01-07T18:31:42.942Z,100405.69
2023-01-07T18:34:11.404Z,100408.28
2023-01-07T18:36:37.936Z,100401.41
2023-01-07T18:39:05.871Z,100400.50
2023-01-07T18:41:33.510Z,100389.19
2023-01-07T18:44:00.299Z,100378.88
2023-01-07T18:46:26.839Z,100383.31
2023-01-07T18:48:53.226Z,100382.56
2023-01-07T18:51:19.656Z,100397.38
2023-01-07T18:53:46.006Z,100390.41
2023-01-07T18:56:13.084Z,100376.94
2023-01-07T18:58:39.825Z,100389.22
2023-01-07T19:01:08.328Z,100382.44
2023-01-07T19:03:35.076Z,100387.78
2023-01-07T19:06:06.989Z,100393.97
2023-01-07T19:08:33.427Z,100401.75
2023-01-07T19:10:59.982Z,100394.66
2023-01-07T19:13:26.712Z,100395.41
2023-01-07T19:15:53.179Z,100395.16
2023-01-07T19:18:19.591Z,100377.75
2023-01-07T19:20:46.029Z,100381.03
2023-01-07T19:23:12.539Z,100366.28
2023-01-07T19:25:38.959Z,100371.41
2023-01-07T19:28:05.403Z,100370.41
2023-01-07T19:30:31.815Z,100363.44
2023-01-07T19:32:59.001Z,100363.38
2023-01-07T19:35:26.717Z,100371.09
2023-01-07T19:37:53.253Z,100366.72
2023-01-07T19:40:19.705Z,100376.13
2023-01-07T19:42:47.729Z,100364.00
2023-01-07T19:45:14.142Z,100359.53
2023-01-07T19:47:41.162Z,100356.03
2023-01-07T19:50:08.220Z,100356.84
2023-01-07T19:52:34.750Z,100349.06
2023-01-07T19:55:01.344Z,100355.03
2023-01-07T19:57:28.921Z,100340.19
2023-01-07T19:59:55.757Z,100336.75
2023-01-07T20:02:22.473Z,100343.63
2023-01-07T20:04:49.029Z,100345.25
2023-01-07T20:07:15.426Z,100340.94
2023-01-07T20:09:41.764Z,100334.00
2023-01-07T20:12:08.176Z,100337.44
2023-01-07T20:14:34.638Z,100324.38
2023-01-07T20:17:01.251Z,100318.34
2023-01-07T20:19:28.418Z,100318.34
2023-01-07T20:21:54.891Z,100320.94
2023-01-07T20:24:21.641Z,100322.63
2023-01-07T20:26:48.053Z,100310.47
2023-01-07T20:29:14.575Z,100305.16
2023-01-07T20:31:41.228Z,100309.47
2023-01-07T20:34:07.957Z,100313.72
2023-01-07T20:36:34.420Z,100319.78
2023-01-07T20:39:06.023Z,100308.53
2023-01-07T20:41:34.202Z,100316.31
2023-01-07T20:44:03.410Z,100324.03
2023-01-07T20:46:34.777Z,100323.19
2023-01-07T20:49:01.464Z,100319.09
2023-01-07T20:51:27.946Z,100317.50
2023-01-07T20:53:54.395Z,100322.84
2023-01-07T20:56:22.465Z,100312.63
2023-01-07T20:58:49.616Z,100314.56
2023-01-07T21:01:19.265Z,100307.69
2023-01-07T21:03:47.557Z,100304.28
2023-01-07T21:06:17.568Z,100301.69
2023-01-07T21:08:46.647Z,100299.81
2023-01-07T21:11:15.507Z,100289.53
2023-01-07T21:13:42.831Z,100299.06
2023-01-07T21:16:10.185Z,100303.34
2023-01-07T21:18:37.070Z,100299.06
2023-01-07T21:21:18.946Z,100298.06
2023-01-07T21:23:48.777Z,100297.22
2023-01-07T21:26:16.160Z,100297.13
2023-01-07T21:28:44.327Z,100299.59
2023-01-07T21:31:13.671Z,100309.03
2023-01-07T21:33:40.724Z,100314.97
2023-01-07T21:36:09.084Z,100308.78
2023-01-07T21:38:35.742Z,100291.53
2023-01-07T21:41:07.184Z,100297.31
2023-01-07T21:43:33.626Z,100297.31
2023-01-07T21:46:02.056Z,100296.41
2023-01-07T21:48:30.998Z,100291.97
2023-01-07T21:51:02.020Z,100296.41
2023-01-07T21:53:33.123Z,100280.06
2023-01-07T21:56:06.525Z,100283.41
2023-01-07T21:58:32.997Z,100283.66
2023-01-07T22:00:59.472Z,100288.09
2023-01-07T22:03:28.086Z,100295.91
2023-01-07T22:06:04.806Z,100288.19
2023-01-07T22:08:33.470Z,100297.81
2023-01-07T22:10:59.905Z,100283.06
2023-01-07T22:13:26.561Z,100284.84
2023-01-07T22:15:52.941Z,100281.41
2023-01-07T22:18:19.339Z,100273.69
2023-01-07T22:20:52.557Z,100273.69
2023-01-07T22:23:18.920Z,100278.19
2023-01-07T22:25:45.543Z,100289.53
2023-01-07T22:28:14.689Z,100278.31
2023-01-07T22:30:44.294Z,100269.66
2023-01-07T22:33:10.639Z,100270.66
2023-01-07T22:35:37.185Z,100271.50
2023-01-07T22:38:04.190Z,100277.28
2023-01-07T22:40:35.013Z,100273.50
2023-01-07T22:43:06.517Z,100263.63
2023-01-07T22:45:50.993Z,100270.31
2023-01-07T22:48:22.213Z,100272.00
2023-01-07T22:50:49.466Z,100270.16
2023-01-07T22:53:15.975Z,100273.50
2023-01-07T22:55:42.537Z,100272.44
2023-01-07T22:58:08.927Z,100282.63
2023-01-07T23:01:01.635Z,100281.63
2023-01-07T23:03:28.124Z,100284.22
2023-01-07T23:05:54.708Z,100281.53
2023-01-07T23:08:21.147Z,100283.97
2023-01-07T23:10:48.275Z,100281.28
2023-01-07T23:13:14.916Z,100284.81
2023-01-07T23:15:41.387Z,100272.72
2023-01-07T23:18:08.847Z,100271.00
2023-01-07T23:20:39.429Z,100274.34
2023-01-07T23:23:06.197Z,100276.94
2023-01-07T23:25:32.821Z,100282.16
2023-01-07T23:27:59.274Z,100287.22
2023-01-07T23:30:25.728Z,100296.72
2023-01-07T23:32:52.209Z,100311.56
2023-01-07T23:35:18.651Z,100297.97
2023-01-07T23:37:45.292Z,100294.88
2023-01-07T23:40:12.256Z,100294.22
2023-01-07T23:42:38.867Z,100344.66
2023-01-07T23:45:07.189Z,100338.53
2023-01-07T23:47:36.776Z,100347.78
2023-01-07T23:50:04.075Z,100341.09
2023-01-07T23:52:30.535Z,100330.44
2023-01-07T23:54:57.067Z,100340.28
2023-01-07T23:57:23.519Z,100332.13
2023-01-07T23:59:50.049Z,100322.91
